Time;durP1;ratioP1;P1;durP2;ratioP2;P2;SDS_P1;SDS_P2;PMS_P1;PMS_P2;Temp;Humidity;BMP_temperature;BMP_pressure;BME280_temperature;BME280_humidity;BME280_pressure;Samples;Min_cycle;Max_cycle;Signal;HPM_P1;HPM_P2
2022/04/01 00:00:53;;;;;;;27.13;17.48;;;;;;;14.72;68.54;97377.44;4494616;31;34032;-77
2022/04/01 00:03:21;;;;;;;26.05;17.15;;;;;;;14.70;68.64;97374.16;4484085;31;33341;-77
2022/04/01 00:05:48;;;;;;;23.45;17.77;;;;;;;14.76;68.48;97378.50;4474006;31;33203;-78
2022/04/01 00:08:17;;;;;;;24.77;17.95;;;;;;;14.70;68.59;97376.09;4494643;31;34696;-78
2022/04/01 00:10:44;;;;;;;23.92;17.37;;;;;;;14.71;68.56;97372.22;4482709;31;34076;-78
2022/04/01 00:13:13;;;;;;;23.42;17.45;;;;;;;14.73;68.45;97373.56;4470907;32;33079;-78
2022/04/01 00:15:42;;;;;;;27.02;18.90;;;;;;;14.60;69.09;97382.53;4483289;32;33192;-76
2022/04/01 00:18:11;;;;;;;25.10;18.83;;;;;;;14.69;68.89;97380.78;4484527;32;34400;-79
2022/04/01 00:20:40;;;;;;;27.83;19.33;;;;;;;14.74;68.61;97372.47;4484548;32;33287;-76
2022/04/01 00:23:07;;;;;;;28.17;19.45;;;;;;;14.76;68.58;97377.69;4485674;32;33467;-76
2022/04/01 00:25:36;;;;;;;26.27;19.70;;;;;;;14.73;68.65;97370.00;4485250;32;34441;-76
2022/04/01 00:28:03;;;;;;;29.17;19.92;;;;;;;14.74;68.62;97377.97;4484637;32;34556;-76
2022/04/01 00:30:33;;;;;;;26.15;19.23;;;;;;;14.69;68.80;97368.94;4484522;32;33852;-76
2022/04/01 00:33:01;;;;;;;27.80;19.33;;;;;;;14.74;68.61;97364.19;4485676;32;33181;-76
2022/04/01 00:35:32;;;;;;;24.60;19.23;;;;;;;14.79;68.38;97369.63;4485801;32;34689;-76
2022/04/01 00:37:59;;;;;;;33.30;20.95;;;;;;;14.69;68.72;97360.66;4484274;32;34259;-76
2022/04/01 00:40:27;;;;;;;27.67;19.73;;;;;;;14.64;69.00;97369.81;4484360;32;34095;-76
2022/04/01 00:42:55;;;;;;;31.23;20.60;;;;;;;14.71;68.70;97359.22;4484378;32;33364;-76
2022/04/01 00:45:23;;;;;;;33.22;22.08;;;;;;;14.63;68.95;97354.34;4483721;32;32025;-76
2022/04/01 00:47:51;;;;;;;34.97;20.42;;;;;;;14.66;68.84;97348.25;4485465;32;34509;-77
2022/04/01 00:50:19;;;;;;;34.28;22.50;;;;;;;14.64;68.91;97339.44;4485308;32;34062;-76
2022/04/01 00:52:46;;;;;;;33.45;21.20;;;;;;;14.59;69.35;97347.75;4484279;32;33496;-77
2022/04/01 00:55:14;;;;;;;35.92;21.23;;;;;;;14.65;68.89;97357.66;4483765;32;33835;-77
2022/04/01 00:57:43;;;;;;;34.42;20.75;;;;;;;14.68;68.90;97356.25;4483503;32;34232;-76
2022/04/01 01:00:12;;;;;;;34.58;22.67;;;;;;;14.68;68.90;97354.28;4470922;32;32383;-76
2022/04/01 01:02:40;;;;;;;42.72;22.42;;;;;;;14.64;68.89;97342.19;4483936;32;31997;-76
2022/04/01 01:05:07;;;;;;;42.42;23.77;;;;;;;14.64;69.07;97347.72;4470743;32;33596;-77
2022/04/01 01:07:39;;;;;;;40.95;22.30;;;;;;;14.60;69.29;97349.41;4483733;32;32968;-76
2022/04/01 01:10:07;;;;;;;41.28;23.85;;;;;;;14.63;69.37;97359.88;4471050;32;32593;-76
2022/04/01 01:12:34;;;;;;;44.90;23.40;;;;;;;14.47;70.00;97369.41;4483982;32;34060;-76
2022/04/01 01:15:13;;;;;;;44.10;23.87;;;;;;;14.56;69.51;97359.38;4484869;32;34413;-76
2022/04/01 01:17:41;;;;;;;41.53;23.80;;;;;;;14.63;69.25;97359.88;4483889;32;34480;-76
2022/04/01 01:20:14;;;;;;;39.95;23.80;;;;;;;14.49;69.86;97353.38;4484950;32;33853;-76
2022/04/01 01:22:43;;;;;;;44.55;23.55;;;;;;;14.61;69.47;97362.09;4471197;32;33361;-77
2022/04/01 01:25:12;;;;;;;42.92;23.80;;;;;;;14.53;69.63;97359.97;4483712;32;33952;-76
2022/04/01 01:27:43;;;;;;;40.90;24.33;;;;;;;14.58;69.50;97357.16;4484735;32;34334;-76
2022/04/01 01:30:11;;;;;;;41.10;23.35;;;;;;;14.62;69.38;97363.75;4470764;32;34126;-76
2022/04/01 01:32:39;;;;;;;41.13;24.40;;;;;;;14.65;69.27;97356.81;4483456;32;34067;-76
2022/04/01 01:35:08;;;;;;;42.47;22.70;;;;;;;14.67;69.13;97360.94;4483629;32;32306;-76
2022/04/01 01:37:36;;;;;;;47.50;23.38;;;;;;;14.66;69.21;97358.47;4483614;32;33883;-76
2022/04/01 01:40:05;;;;;;;40.10;23.87;;;;;;;14.67;69.11;97349.88;4483428;32;33946;-76
2022/04/01 01:42:32;;;;;;;38.40;23.15;;;;;;;14.64;69.18;97347.72;4483609;32;33343;-76
2022/04/01 01:45:01;;;;;;;40.47;24.77;;;;;;;14.59;69.28;97347.75;4483529;32;34619;-76
2022/04/01 01:47:29;;;;;;;38.00;23.08;;;;;;;14.57;69.56;97355.50;4483201;32;34729;-76
2022/04/01 01:55:29;;;;;;;42.97;24.35;;;;;;;14.66;69.25;97352.94;4484770;32;33762;-76
2022/04/01 01:57:59;;;;;;;42.90;24.15;;;;;;;14.49;69.94;97361.66;4483203;32;34321;-76
2022/04/01 02:00:27;;;;;;;44.03;24.15;;;;;;;14.50;69.86;97355.03;4483125;32;34019;-76
2022/04/01 02:02:56;;;;;;;42.45;23.77;;;;;;;14.58;69.56;97354.41;4483293;32;34126;-76
2022/04/01 02:05:24;;;;;;;41.70;23.92;;;;;;;14.59;69.59;97347.75;4483232;32;33705;-76
2022/04/01 02:07:53;;;;;;;40.10;22.77;;;;;;;14.68;69.16;97351.53;4483051;32;34478;-76
2022/04/01 02:10:21;;;;;;;43.03;23.62;;;;;;;14.64;69.37;97350.47;4482755;32;33812;-76
2022/04/01 02:12:49;;;;;;;38.80;23.15;;;;;;;14.70;69.13;97357.59;4470111;32;33776;-76
2022/04/01 02:15:17;;;;;;;40.15;23.33;;;;;;;14.52;69.68;97352.81;4482979;32;33674;-77
2022/04/01 02:17:46;;;;;;;38.55;22.60;;;;;;;14.64;69.41;97342.19;4472040;32;34395;-77
2022/04/01 02:20:13;;;;;;;40.55;24.80;;;;;;;14.63;69.34;97346.06;4485617;32;33946;-77
2022/04/01 02:22:43;;;;;;;40.58;22.98;;;;;;;14.59;69.61;97349.72;4486563;32;33997;-77
2022/04/01 02:25:12;;;;;;;37.95;23.48;;;;;;;14.58;69.58;97348.87;4485706;32;33614;-76
2022/04/01 02:27:39;;;;;;;36.38;22.30;;;;;;;14.65;69.33;97338.31;4486404;32;34605;-76
2022/04/01 02:30:10;;;;;;;34.65;22.17;;;;;;;14.63;69.36;97343.31;4472516;32;33852;-76
2022/04/01 02:32:41;;;;;;;39.65;22.85;;;;;;;14.66;69.12;97326.16;4485624;32;31994;-76
2022/04/01 02:35:10;;;;;;;31.73;21.37;;;;;;;14.64;69.24;97320.09;4485152;32;33598;-76
2022/04/01 02:37:39;;;;;;;33.05;21.87;;;;;;;14.62;69.40;97308.53;4485097;32;35158;-76
2022/04/01 02:40:09;;;;;;;34.92;21.37;;;;;;;14.64;69.30;97309.06;4484906;32;33672;-75
2022/04/01 02:42:37;;;;;;;31.23;21.12;;;;;;;14.62;69.40;97308.53;4485233;32;31810;-76
2022/04/01 02:45:06;;;;;;;33.78;20.85;;;;;;;14.66;69.26;97308.78;4485554;32;34005;-76
2022/04/01 02:47:33;;;;;;;30.60;20.55;;;;;;;14.66;69.38;97319.81;4485238;32;35031;-76
2022/04/01 02:50:02;;;;;;;27.75;18.77;;;;;;;14.62;69.35;97319.56;4486520;32;33827;-76
2022/04/01 02:52:32;;;;;;;27.90;20.48;;;;;;;14.58;69.58;97324.03;4472747;32;33937;-76
2022/04/01 02:55:00;;;;;;;27.45;18.80;;;;;;;14.56;69.71;97320.75;4486277;32;34497;-76
2022/04/01 02:57:28;;;;;;;25.92;17.42;;;;;;;14.66;69.37;97319.81;4486747;32;34585;-76
2022/04/01 02:59:58;;;;;;;25.12;15.88;;;;;;;14.65;69.39;97313.47;4471880;32;32195;-76
2022/04/01 03:02:25;;;;;;;25.08;17.20;;;;;;;14.67;69.27;97310.41;4486476;32;33174;-77
2022/04/01 03:04:53;;;;;;;24.37;17.08;;;;;;;14.65;69.27;97307.12;4486348;32;34496;-76
2022/04/01 03:07:21;;;;;;;23.52;17.67;;;;;;;14.63;69.37;97304.66;4486312;32;34513;-76
2022/04/01 03:09:48;;;;;;;22.85;17.52;;;;;;;14.63;69.41;97301.91;4485108;32;33544;-76
2022/04/01 03:12:18;;;;;;;25.50;18.17;;;;;;;14.70;69.10;97298.78;4486625;32;33908;-76
2022/04/01 03:14:46;;;;;;;25.80;17.90;;;;;;;14.57;69.59;97311.34;4485275;32;33936;-76
2022/04/01 03:17:17;;;;;;;25.30;18.08;;;;;;;14.59;69.53;97314.62;4486202;32;32901;-76
2022/04/01 03:19:45;;;;;;;25.80;17.30;;;;;;;14.43;70.08;97325.03;4486492;32;34806;-76
2022/04/01 03:22:13;;;;;;;25.75;16.20;;;;;;;14.50;70.01;97344.81;4486207;32;33574;-76
2022/04/01 03:24:42;;;;;;;23.55;16.02;;;;;;;14.53;69.62;97337.06;4485062;32;33854;-76
2022/04/01 03:27:10;;;;;;;21.62;14.82;;;;;;;14.57;69.58;97311.34;4486150;32;34940;-76
2022/04/01 03:29:37;;;;;;;17.37;12.57;;;;;;;14.57;69.71;97300.31;4472059;32;33446;-76
2022/04/01 03:32:05;;;;;;;15.38;11.18;;;;;;;14.58;69.65;97285.41;4485025;32;33313;-75
2022/04/01 03:34:34;;;;;;;14.32;11.43;;;;;;;14.50;69.91;97306.19;4485007;32;34433;-76
2022/04/01 03:37:02;;;;;;;13.68;11.57;;;;;;;14.53;69.69;97313.06;4485127;32;34037;-76
2022/04/01 03:39:30;;;;;;;15.90;10.85;;;;;;;14.39;70.30;97317.59;4472097;32;32394;-76
2022/04/01 03:42:00;;;;;;;14.15;11.02;;;;;;;14.53;69.61;97313.06;4485095;32;33068;-76
2022/04/01 03:44:28;;;;;;;12.90;10.18;;;;;;;14.56;69.54;97314.41;4459172;32;32417;-76
2022/04/01 03:47:10;;;;;;;13.05;10.38;;;;;;;14.57;69.42;97325.16;4485152;32;35223;-76
2022/04/01 03:49:47;;;;;;;12.35;10.23;;;;;;;14.57;69.32;97322.41;4471868;32;33353;-76
2022/04/01 03:52:16;;;;;;;13.57;11.05;;;;;;;14.59;69.38;97317.41;4471434;32;31981;-76
2022/04/01 03:54:47;;;;;;;12.05;9.95;;;;;;;14.60;69.31;97315.47;4484683;32;34639;-77
2022/04/01 03:57:26;;;;;;;11.35;9.25;;;;;;;14.58;69.33;97318.53;4485782;32;34354;-76
2022/04/01 04:00:12;;;;;;;14.20;9.70;;;;;;;14.52;69.63;97327.97;4472730;32;33014;-76
2022/04/01 04:02:41;;;;;;;11.82;9.40;;;;;;;14.59;69.38;97311.88;4484785;32;34011;-76
2022/04/01 04:05:09;;;;;;;12.65;9.27;;;;;;;14.59;69.33;97317.41;4471989;32;33632;-76
2022/04/01 04:07:39;;;;;;;13.13;9.93;;;;;;;14.58;69.44;97315.75;4484261;32;34989;-76
2022/04/01 04:10:08;;;;;;;10.80;8.85;;;;;;;14.56;69.42;97323.50;4472117;32;33753;-77
2022/04/01 04:12:38;;;;;;;12.88;9.40;;;;;;;14.57;69.49;97324.34;4484818;32;34096;-76
2022/04/01 04:15:07;;;;;;;12.60;9.65;;;;;;;14.57;69.46;97294.78;4483870;32;34542;-76
2022/04/01 04:17:38;;;;;;;14.07;10.38;;;;;;;14.62;69.13;97286.44;4484983;32;34258;-76
2022/04/01 04:20:32;;;;;;;13.07;10.35;;;;;;;14.53;69.58;97282.69;4484480;32;33470;-76
2022/04/01 04:23:23;;;;;;;13.62;10.65;;;;;;;14.58;69.50;97284.56;4455925;32;33518;-76
2022/04/01 04:25:59;;;;;;;14.15;10.93;;;;;;;14.62;69.34;97296.66;4471777;32;33306;-76
2022/04/01 04:28:32;;;;;;;15.82;11.50;;;;;;;14.56;69.52;97281.28;4484854;32;34324;-77
2022/04/01 04:31:15;;;;;;;14.75;11.07;;;;;;;14.53;69.81;97285.44;4461985;32;31658;-76
2022/04/01 04:33:46;;;;;;;13.20;10.48;;;;;;;14.70;70.27;97274.75;4484945;32;34066;-76
2022/04/01 04:36:38;;;;;;;15.20;11.32;;;;;;;14.70;69.86;97276.69;4484431;32;33488;-76
2022/04/01 04:39:08;;;;;;;18.20;12.85;;;;;;;14.78;69.23;97285.16;4470705;32;35197;-77
2022/04/01 04:41:38;;;;;;;20.00;15.05;;;;;;;14.77;69.24;97299.25;4484324;32;33788;-76
2022/04/01 04:44:06;;;;;;;44.00;31.02;;;;;;;14.75;69.19;97302.31;4471450;32;31729;-76
2022/04/01 04:46:37;;;;;;;48.22;33.08;;;;;;;14.76;69.00;97297.63;4471227;32;32324;-76
2022/04/01 04:49:06;;;;;;;31.25;22.65;;;;;;;14.57;69.36;97308.59;4471036;32;35310;-76
2022/04/01 04:51:34;;;;;;;35.53;27.42;;;;;;;14.66;69.15;97304.06;4484299;32;33875;-76
2022/04/01 04:54:03;;;;;;;34.97;24.12;;;;;;;14.62;69.26;97313.22;4484380;32;34027;-75
2022/04/01 04:56:32;;;;;;;29.77;21.15;;;;;;;14.67;68.98;97314.00;4471066;32;33211;-76
2022/04/01 04:59:03;;;;;;;19.30;14.57;;;;;;;14.69;68.98;97309.00;4485612;32;35342;-75
2022/04/01 05:01:55;;;;;;;18.30;13.45;;;;;;;14.64;69.06;97303.53;4471080;32;32308;-76
2022/04/01 05:04:50;;;;;;;17.10;12.57;;;;;;;14.68;68.99;97301.84;4471422;32;31787;-76
2022/04/01 05:07:49;;;;;;;17.35;12.88;;;;;;;14.70;69.03;97310.66;4485447;32;34428;-77
2022/04/01 05:10:29;;;;;;;17.98;13.23;;;;;;;14.53;69.70;97318.56;4483735;32;35150;-76
2022/04/01 05:13:03;;;;;;;24.55;17.10;;;;;;;14.50;70.12;97324.69;4483769;32;33732;-76
2022/04/01 05:15:35;;;;;;;32.40;21.58;;;;;;;14.53;69.72;97328.78;4484171;32;33529;-76
2022/04/01 05:18:05;;;;;;;23.15;16.12;;;;;;;14.59;69.45;97331.19;4483661;32;33368;-76
2022/04/01 05:20:36;;;;;;;19.65;13.90;;;;;;;14.03;71.04;97328.97;4484995;32;35374;-76
2022/04/01 05:23:11;;;;;;;20.65;13.68;;;;;;;13.84;71.58;97333.53;4483785;32;34600;-76
2022/04/01 05:25:48;;;;;;;21.75;14.73;;;;;;;13.48;72.24;97330.22;4485096;32;34063;-76
2022/04/01 05:28:25;;;;;;;20.15;13.27;;;;;;;13.17;73.92;97330.41;4484160;32;34280;-76
2022/04/01 05:30:59;;;;;;;20.23;12.70;;;;;;;13.80;71.30;97336.03;4483330;32;34807;-75
2022/04/01 05:33:56;;;;;;;18.30;11.85;;;;;;;13.94;70.69;97330.69;4482966;32;33813;-75
2022/04/01 05:36:28;;;;;;;17.42;11.60;;;;;;;13.63;71.44;97332.06;4468862;32;32736;-77
2022/04/01 05:38:57;;;;;;;19.42;11.60;;;;;;;13.73;71.34;97332.78;4465237;32;32286;-76
2022/04/01 05:41:25;;;;;;;15.15;9.57;;;;;;;13.88;70.68;97326.34;4472093;32;35212;-76
2022/04/01 05:43:53;;;;;;;16.20;10.48;;;;;;;13.98;70.14;97325.44;4476042;32;34360;-76
2022/04/01 05:46:23;;;;;;;16.40;9.80;;;;;;;13.86;70.35;97325.78;4463314;32;34282;-76
2022/04/01 05:48:54;;;;;;;22.17;14.40;;;;;;;13.86;70.71;97325.78;4461692;32;33706;-76
2022/04/01 05:51:22;;;;;;;25.95;15.88;;;;;;;13.90;70.34;97331.56;4463540;32;35488;-76
2022/04/01 05:53:50;;;;;;;19.60;11.50;;;;;;;14.02;70.14;97327.31;4472166;32;33949;-76
2022/04/01 05:56:18;;;;;;;14.82;8.75;;;;;;;13.90;70.85;97335.16;4478486;32;33360;-76
2022/04/01 05:58:47;;;;;;;12.77;6.95;;;;;;;13.90;70.47;97335.16;4476970;32;33705;-76
2022/04/01 06:01:42;;;;;;;7.78;5.43;;;;;;;13.78;70.57;97349.28;4486031;32;35200;-76
2022/04/01 06:04:32;;;;;;;9.00;5.60;;;;;;;13.39;71.27;97349.28;4484962;32;34863;-76
2022/04/01 06:07:20;;;;;;;8.02;4.85;;;;;;;13.55;69.41;97333.50;4485769;32;33114;-76
2022/04/01 06:10:05;;;;;;;7.15;4.90;;;;;;;13.50;69.23;97334.34;4485493;32;34040;-76
2022/04/01 06:12:50;;;;;;;8.90;5.22;;;;;;;13.44;68.95;97327.22;4473119;32;32664;-76
2022/04/01 06:16:16;;;;;;;7.32;4.62;;;;;;;12.97;70.75;97333.22;4485519;32;34155;-76
2022/04/01 06:18:48;;;;;;;10.10;5.22;;;;;;;13.12;70.08;97330.38;4486216;32;34728;-76
2022/04/01 06:21:22;;;;;;;7.18;4.90;;;;;;;13.15;69.96;97337.25;4485415;32;32145;-76
2022/04/01 06:23:57;;;;;;;8.00;4.90;;;;;;;12.95;70.85;97329.94;4485292;32;34319;-76
2022/04/01 06:26:28;;;;;;;8.07;5.00;;;;;;;13.29;69.44;97326.47;4485059;32;33278;-76
2022/04/01 06:29:12;;;;;;;9.70;5.35;;;;;;;13.26;69.74;97324.28;4472552;32;31672;-75
2022/04/01 06:31:46;;;;;;;9.52;5.18;;;;;;;13.29;70.09;97327.31;4485471;32;32278;-76
2022/04/01 06:34:25;;;;;;;7.78;4.80;;;;;;;13.18;70.36;97339.47;4485419;32;34587;-76
2022/04/01 06:37:04;;;;;;;8.23;5.00;;;;;;;13.41;69.59;97337.97;4485860;32;34300;-76
2022/04/01 06:39:36;;;;;;;8.88;4.93;;;;;;;13.43;69.25;97341.28;4472954;32;32855;-76
2022/04/01 06:42:06;;;;;;;9.65;5.28;;;;;;;13.23;69.91;97339.44;4486561;32;34198;-76
2022/04/01 06:44:37;;;;;;;7.65;4.80;;;;;;;13.19;69.97;97343.88;4460141;32;34042;-77
2022/04/01 06:47:10;;;;;;;6.60;4.07;;;;;;;13.24;70.20;97341.09;4485384;32;32228;-76
2022/04/01 06:49:40;;;;;;;9.85;4.43;;;;;;;13.33;70.05;97335.81;4472739;32;33156;-76
2022/04/01 06:52:14;;;;;;;8.18;4.70;;;;;;;13.33;69.88;97336.66;4485553;32;32330;-76
2022/04/01 06:54:48;;;;;;;7.87;4.47;;;;;;;13.28;70.05;97344.94;4485407;32;34063;-76
2022/04/01 06:57:17;;;;;;;6.72;4.43;;;;;;;13.34;69.65;97338.28;4472589;32;33306;-76
2022/04/01 06:59:46;;;;;;;9.25;4.60;;;;;;;13.18;70.47;97342.22;4485679;32;33189;-76
2022/04/01 07:02:13;;;;;;;10.88;5.03;;;;;;;13.21;70.19;97344.41;4485051;32;34593;-76
2022/04/01 07:04:44;;;;;;;9.57;5.18;;;;;;;13.46;69.36;97336.03;4485273;32;35053;-76
2022/04/01 07:07:17;;;;;;;10.38;5.05;;;;;;;13.32;70.13;97340.50;4485303;32;33849;-76
2022/04/01 07:09:47;;;;;;;9.15;4.82;;;;;;;13.39;70.13;97337.44;4472550;32;33316;-76
2022/04/01 07:12:21;;;;;;;6.75;4.43;;;;;;;13.31;70.68;97344.38;4472635;32;32795;-76
2022/04/01 07:14:50;;;;;;;17.10;9.27;;;;;;;12.97;71.66;97347.00;4485470;32;34250;-76
2022/04/01 07:17:19;;;;;;;8.02;3.95;;;;;;;12.86;72.76;97361.91;4485166;32;34744;-76
2022/04/01 07:19:47;;;;;;;6.60;3.67;;;;;;;13.29;70.00;97360.34;4459679;32;33361;-76
2022/04/01 07:22:17;;;;;;;9.55;3.33;;;;;;;13.11;69.45;97356.28;4472361;32;32173;-75
2022/04/01 07:24:45;;;;;;;4.93;2.50;;;;;;;13.13;69.43;97358.75;4472428;32;33710;-76
2022/04/01 07:27:17;;;;;;;4.78;2.45;;;;;;;12.79;68.67;97356.69;4485186;32;32548;-76
2022/04/01 07:29:47;;;;;;;8.27;4.65;;;;;;;12.96;68.04;97363.81;4485305;32;33320;-76
2022/04/01 07:32:30;;;;;;;15.48;9.65;;;;;;;12.65;68.49;97358.38;4485109;32;32250;-76
2022/04/01 07:35:07;;;;;;;11.75;6.62;;;;;;;12.51;68.70;97369.16;4486172;32;34563;-76
2022/04/01 07:37:42;;;;;;;11.55;6.22;;;;;;;12.64;68.01;97356.75;4475722;32;33939;-75
2022/04/01 07:40:21;;;;;;;9.35;4.60;;;;;;;12.08;68.40;97358.75;4457559;32;32347;-75
2022/04/01 07:42:50;;;;;;;6.68;3.78;;;;;;;12.30;67.91;97362.06;4469384;32;34451;-76
2022/04/01 07:45:21;;;;;;;7.20;4.18;;;;;;;12.31;67.80;97363.69;4469266;32;32849;-76
2022/04/01 07:47:52;;;;;;;8.48;4.35;;;;;;;12.35;68.06;97367.50;4469647;32;34676;-75
2022/04/01 07:50:21;;;;;;;7.65;3.95;;;;;;;12.33;67.76;97371.69;4469332;32;32551;-76
2022/04/01 07:52:49;;;;;;;7.93;4.68;;;;;;;12.24;68.55;97374.16;4456249;32;32389;-76
2022/04/01 07:55:17;;;;;;;7.07;4.43;;;;;;;12.22;68.93;97375.53;4470431;32;34505;-76
2022/04/01 07:57:47;;;;;;;8.23;4.70;;;;;;;11.79;69.32;97373.03;4468933;32;34134;-75
2022/04/01 08:00:24;;;;;;;6.80;3.83;;;;;;;12.15;68.29;97375.81;4457543;32;33307;-76
2022/04/01 08:02:58;;;;;;;9.13;4.18;;;;;;;12.00;69.10;97373.06;4470147;32;33713;-75
2022/04/01 08:05:29;;;;;;;12.82;6.55;;;;;;;12.01;69.14;97385.69;4443468;32;33013;-75
2022/04/01 08:07:57;;;;;;;8.02;4.68;;;;;;;12.29;68.57;97381.59;4469122;32;33880;-74
2022/04/01 08:10:25;;;;;;;8.18;3.97;;;;;;;11.52;70.39;97394.41;4456158;32;31721;-75
2022/04/01 08:12:53;;;;;;;7.03;3.55;;;;;;;11.84;71.07;97396.97;4456187;32;32323;-76
2022/04/01 08:15:21;;;;;;;5.65;2.92;;;;;;;11.93;70.19;97406.31;4469141;32;34634;-75
2022/04/01 08:17:48;;;;;;;7.87;3.45;;;;;;;10.99;72.24;97399.19;4469157;32;33282;-75
2022/04/01 08:20:16;;;;;;;21.70;12.25;;;;;;;11.61;70.20;97394.72;4455771;32;31888;-76
2022/04/01 08:22:44;;;;;;;7.20;4.10;;;;;;;10.82;73.35;97399.38;4468856;32;34556;-75
2022/04/01 08:25:17;;;;;;;22.80;14.02;;;;;;;11.44;71.64;97398.50;4470057;32;34606;-75
2022/04/01 08:27:45;;;;;;;7.15;3.72;;;;;;;11.06;72.87;97410.72;4470128;32;34549;-75
2022/04/01 08:30:13;;;;;;;7.12;3.75;;;;;;;11.37;70.84;97413.59;4456049;32;31979;-76
2022/04/01 08:32:40;;;;;;;5.82;3.40;;;;;;;11.43;71.08;97418.00;4469918;32;33769;-76
2022/04/01 08:35:09;;;;;;;8.48;3.47;;;;;;;11.27;71.60;97417.13;4468801;32;34216;-76
2022/04/01 08:37:38;;;;;;;7.75;3.50;;;;;;;11.28;71.89;97409.72;4468941;32;32460;-75
2022/04/01 08:40:07;;;;;;;7.15;3.67;;;;;;;11.56;70.37;97423.00;4468785;32;31354;-75
2022/04/01 08:42:35;;;;;;;8.63;3.55;;;;;;;10.89;71.96;97427.41;4469114;32;34571;-75
2022/04/01 08:45:07;;;;;;;8.65;3.78;;;;;;;10.76;72.70;97427.06;4456545;32;32849;-75
2022/04/01 08:47:38;;;;;;;7.03;3.42;;;;;;;11.09;71.93;97431.31;4456124;32;33930;-80
2022/04/01 08:50:07;;;;;;;6.80;3.33;;;;;;;10.96;72.46;97438.16;4455853;32;32675;-73
2022/04/01 08:52:40;;;;;;;7.20;3.50;;;;;;;10.44;72.75;97449.06;4455716;32;32016;-75
2022/04/01 08:55:09;;;;;;;19.58;11.80;;;;;;;10.76;72.86;97451.75;4468680;32;34647;-75
2022/04/01 08:57:39;;;;;;;10.05;4.62;;;;;;;11.01;71.98;97454.66;4469819;32;34491;-75
2022/04/01 09:00:14;;;;;;;6.53;3.67;;;;;;;11.04;71.77;97456.03;4468564;32;33489;-75
2022/04/01 09:02:43;;;;;;;8.43;3.85;;;;;;;11.29;70.67;97455.31;4468582;32;32194;-75
2022/04/01 09:05:11;;;;;;;7.00;4.05;;;;;;;11.35;70.82;97455.06;4455689;32;33031;-75
2022/04/01 09:07:39;;;;;;;8.00;3.92;;;;;;;11.42;70.40;97460.31;4468482;32;33918;-75
2022/04/01 09:10:09;;;;;;;8.73;3.80;;;;;;;11.51;69.83;97454.03;4455671;32;33420;-76
2022/04/01 09:12:51;;;;;;;7.72;4.47;;;;;;;11.17;70.13;97459.09;4469768;32;33952;-76
2022/04/01 09:15:19;;;;;;;29.25;15.18;;;;;;;11.50;69.88;97449.63;4455498;32;34358;-76
2022/04/01 09:17:51;;;;;;;9.13;5.45;;;;;;;11.37;70.39;97452.88;4455487;32;32463;-76
2022/04/01 09:20:20;;;;;;;10.20;4.32;;;;;;;11.14;70.75;97451.38;4455420;32;33016;-75
2022/04/01 09:22:57;;;;;;;6.72;3.97;;;;;;;11.19;69.82;97450.59;4455627;32;34407;-75
2022/04/01 09:25:25;;;;;;;7.43;3.97;;;;;;;11.43;69.39;97454.53;4455542;32;34361;-76
2022/04/01 09:27:53;;;;;;;7.72;4.10;;;;;;;11.51;69.41;97459.53;4457315;32;34581;-76
2022/04/01 09:30:28;;;;;;;7.28;4.00;;;;;;;11.36;68.81;97455.87;4457825;32;33807;-75
2022/04/01 09:32:58;;;;;;;17.10;11.18;;;;;;;11.26;68.83;97469.56;4470133;32;33647;-76
2022/04/01 09:35:27;;;;;;;9.32;4.50;;;;;;;11.23;68.96;97459.94;4457362;32;33055;-75
2022/04/01 09:37:59;;;;;;;8.55;4.80;;;;;;;10.50;71.16;97469.94;4444519;32;32467;-75
2022/04/01 09:40:26;;;;;;;6.90;4.30;;;;;;;11.00;70.36;97474.12;4470077;32;34043;-76
2022/04/01 09:42:56;;;;;;;8.63;4.28;;;;;;;11.10;69.09;97474.16;4457275;32;33187;-75
2022/04/01 09:45:29;;;;;;;8.20;4.45;;;;;;;11.44;68.67;97472.69;4457269;32;33903;-76
2022/04/01 09:48:02;;;;;;;8.77;4.75;;;;;;;10.63;71.14;97483.19;4457508;32;34618;-75
2022/04/01 09:50:31;;;;;;;7.10;3.97;;;;;;;10.93;70.62;97476.28;4470036;32;33221;-75
2022/04/01 09:53:17;;;;;;;6.10;3.42;;;;;;;10.96;70.21;97478.50;4469910;32;34568;-75
2022/04/01 09:55:47;;;;;;;8.57;3.83;;;;;;;10.32;71.40;97478.59;4470111;32;34603;-76
2022/04/01 09:58:17;;;;;;;16.58;10.35;;;;;;;10.02;71.93;97487.31;4470265;32;34741;-75
2022/04/01 10:00:45;;;;;;;10.60;6.35;;;;;;;10.20;72.25;97493.28;4457138;32;31880;-74
2022/04/01 10:03:15;;;;;;;7.62;4.20;;;;;;;10.58;70.98;97485.91;4469893;32;33705;-76
2022/04/01 10:05:43;;;;;;;8.10;4.65;;;;;;;10.09;71.47;97494.25;4471189;32;34612;-75
2022/04/01 10:08:13;;;;;;;9.57;4.70;;;;;;;9.77;73.17;97496.94;4457147;32;33007;-76
2022/04/01 10:10:43;;;;;;;7.20;4.37;;;;;;;10.00;71.97;97486.75;4457562;32;33106;-76
2022/04/01 10:13:21;;;;;;;11.02;5.45;;;;;;;9.81;72.86;97495.34;4469817;32;34414;-76
2022/04/01 10:15:49;;;;;;;16.65;9.38;;;;;;;9.75;73.52;97496.34;4443761;32;33053;-76
2022/04/01 10:18:40;;;;;;;17.90;11.82;;;;;;;9.64;74.86;97504.75;4470112;32;34524;-75
2022/04/01 10:21:10;;;;;;;11.93;6.87;;;;;;;10.02;73.34;97499.13;4469823;32;33163;-76
2022/04/01 10:23:48;;;;;;;11.55;6.80;;;;;;;9.55;73.79;97507.94;4457006;32;32989;-76
2022/04/01 10:26:17;;;;;;;10.30;6.75;;;;;;;9.52;74.63;97513.94;4457083;32;32895;-75
2022/04/01 10:28:46;;;;;;;10.32;6.57;;;;;;;9.61;73.37;97519.78;4456881;32;32471;-75
2022/04/01 10:31:19;;;;;;;10.63;6.25;;;;;;;9.76;72.74;97519.09;4457340;32;32766;-75
2022/04/01 10:33:47;;;;;;;9.63;6.03;;;;;;;9.71;73.58;97516.34;4467166;32;33589;-76
2022/04/01 10:36:21;;;;;;;10.82;6.70;;;;;;;10.23;71.93;97519.34;4485021;32;32964;-76
2022/04/01 10:38:58;;;;;;;12.02;7.18;;;;;;;10.39;70.74;97525.81;4486086;32;34479;-75
2022/04/01 10:41:26;;;;;;;9.82;6.57;;;;;;;10.01;71.42;97533.09;4472405;32;34094;-76
2022/04/01 10:43:57;;;;;;;12.20;7.12;;;;;;;9.69;72.74;97533.03;4485230;32;33611;-76
2022/04/01 10:46:25;;;;;;;13.20;8.75;;;;;;;9.80;73.09;97525.72;4472651;32;35155;-75
2022/04/01 10:52:17;;;;;;;13.48;7.78;;;;;;;10.37;71.86;97536.22;4452499;32;33206;-75
2022/04/01 10:54:47;;;;;;;11.80;8.05;;;;;;;10.75;70.14;97535.97;4478676;31;34375;-75
2022/04/01 10:57:31;;;;;;;20.92;12.55;;;;;;;10.77;70.06;97533.78;4472204;32;32856;-76
2022/04/01 11:00:01;;;;;;;27.25;17.77;;;;;;;10.79;70.33;97539.84;4472303;32;33523;-76
2022/04/01 11:02:29;;;;;;;16.35;11.23;;;;;;;11.14;71.40;97535.66;4472402;32;33561;-75
2022/04/01 11:05:00;;;;;;;19.05;13.07;;;;;;;10.81;70.84;97543.16;4472418;32;33325;-75
2022/04/01 11:07:33;;;;;;;12.52;8.85;;;;;;;10.29;72.64;97542.16;4486138;32;35256;-76
2022/04/01 11:10:06;;;;;;;11.05;7.68;;;;;;;10.55;70.32;97547.59;4472333;32;32535;-76
2022/04/01 11:12:41;;;;;;;11.38;7.45;;;;;;;10.37;69.85;97548.00;4485210;32;34183;-76
2022/04/01 11:15:11;;;;;;;13.43;9.48;;;;;;;9.99;71.40;97545.38;4484847;32;34461;-76
2022/04/01 11:17:49;;;;;;;13.40;8.73;;;;;;;10.14;71.62;97542.81;4485140;32;33264;-76
2022/04/01 11:20:21;;;;;;;12.00;8.50;;;;;;;10.07;72.38;97548.50;4486187;32;33583;-77
2022/04/01 11:23:01;;;;;;;12.80;8.13;;;;;;;10.19;72.08;97545.59;4484964;32;33246;-76
2022/04/01 11:25:32;;;;;;;13.80;9.38;;;;;;;10.00;71.39;97547.88;4484982;32;33138;-76
2022/04/01 11:28:05;;;;;;;12.98;8.88;;;;;;;10.03;72.26;97546.53;4484984;32;33957;-75
2022/04/01 11:30:43;;;;;;;12.82;8.80;;;;;;;10.28;71.52;97541.34;4486040;32;34730;-76
2022/04/01 11:33:13;;;;;;;12.75;9.13;;;;;;;9.68;72.57;97542.31;4486217;32;33354;-75
2022/04/01 11:35:44;;;;;;;23.73;14.87;;;;;;;9.80;72.82;97544.91;4486006;32;34515;-76
2022/04/01 11:38:15;;;;;;;30.17;19.50;;;;;;;9.87;72.63;97549.09;4472256;32;32978;-75
2022/04/01 11:40:56;;;;;;;23.20;14.95;;;;;;;9.75;73.57;97547.59;4485039;32;33874;-74
2022/04/01 11:43:25;;;;;;;16.65;11.35;;;;;;;10.40;71.74;97550.19;4485131;32;34121;-76
2022/04/01 11:46:04;;;;;;;16.52;11.15;;;;;;;10.72;70.37;97550.22;4484923;32;34539;-76
2022/04/01 11:48:44;;;;;;;14.68;8.95;;;;;;;10.61;71.06;97547.66;4484377;32;34404;-75
2022/04/01 11:51:23;;;;;;;14.05;9.88;;;;;;;10.10;70.80;97547.97;4459051;32;32359;-76
2022/04/01 11:54:01;;;;;;;14.48;8.93;;;;;;;10.66;69.87;97547.69;4500561;31;32826;-74